Goodland, KS

2:40 AM MST on March 04, 2015 (GMT -0700)
APRSWXNET Goodland KS US | Change Station
CLOSE
Current Station
Personal Weather Station
Location: Goodland, KS
Elevation: 3690 ft
Nearby Weather Stations

Elev 3690 ft 39.35 °N, 101.70 °W | Updated 40 minutes ago

Light Snow
Light Snow Mist
16.0 °F
Feels Like 16.0 °F
N
3.0
Wind Variable Wind from ENE
Gusts 6.0 mph

Today
High -- | Low -- °F
--% Chance of Precip.
Yesterday
High -- | Low -- °F
Precip. -- in
6:15 AM 5:42 PM
Waxing Gibbous, 98% visible
Pressure 30.07 in
Visibility 3.0 miles
Clouds Overcast 3100 ft
Dew Point 11.0 °F
Humidity 82%
Rainfall 0.00 in
Snow Depth Not available.
UV 0 out of 12
Pollen 3.70 out of 12
Air Quality Not available.
Flu Activity Not available.
SPECI KGLD 040927Z AUTO 04006KT 3SM -SN BR OVC031 M09/M10 A3007 RMK AO2 P0000 T10891100

More Conditions Fewer Conditions

Pressure 30.07 in
Visibility 3.0 miles
Clouds Overcast 3100 ft
Dew Point 11.0 °F
Humidity 82%
Rainfall 0.00 in
Snow Depth Not available.
UV 0 out of 12
Pollen 3.70 out of 12
Air Quality Not available.
Flu Activity Not available.
SPECI KGLD 040927Z AUTO 04006KT 3SM -SN BR OVC031 M09/M10 A3007 RMK AO2 P0000 T10891100

More Conditions Fewer Conditions

10-Day Weather Forecast

Almanac

Astronomy

Mar. 04, 2015 Rise Set
Actual Time
Civil Twilight
Nautical Twilight
Astronomical Twilight
Moon
Length of Visible Light
Length of Day
Tomorrow will be .
, % of the Moon is Illuminated

Today's Extremes

State Highs State Lows

Community

WunderPhotos

Upload Photos

1,802,425 photos uploaded!

WunderBlogs® & News

Nearby

Air Quality

  Air Quality AQ Index Pollutant
Not available.

Snow Depth

Station Depth Elevation

Earthquake Activity

City Distance Mag. Time & Date
Minimum magnitude displayed is 2.5.

Coastal Water Temperatures

Place Temperature

Nearby Weather Stations